EPRZ/RZE METAR and TAF weather

Enter ICAO airport designator
Station Type Date Time Source
EPRZ METAR 2022/12/05 15:00 UTC NOAA

EPRZ 051500Z 11010KT 9999 BKN019 02/01 Q1021


Station Type Date Time Source
EPRZ Decoded METAR 2022/12/05 15:00 UTC NOAA

Rzeszow-Jasionka, Poland (EPRZ) 50-06N 022-03E 202M
Dec 05, 2022 - 10:00 AM EST / 2022.12.05 1500 UTC
Wind: from the ESE (110 degrees) at 12 MPH (10 KT):0
Visibility: greater than 7 mile(s):0
Sky conditions: mostly cloudy
Temperature: 35 F (2 C)
Windchill: 26 F (-3 C):1
Dew Point: 33 F (1 C)
Relative Humidity: 93%
Pressure (altimeter): 30.15 in. Hg (1021 hPa)
ob: EPRZ 051500Z 11010KT 9999 BKN019 02/01 Q1021
cycle: 15

Station Type Date Time Source
EPRZ TAF 2022/12/05 12:36 UTC NOAA

TAF EPRZ 051130Z 0512/0612 11012KT CAVOK
BECMG 0515/0518 18012KT
BECMG 0518/0520 BKN013
TEMPO 0607/0612 4000 RA BR BKN007

Example: see airport list